createdAt,value
2019-06-08T00:00:48.375Z,97460.44
2019-06-08T00:03:16.856Z,97471.44
2019-06-08T00:05:44.503Z,97464.62
2019-06-08T00:08:12.969Z,97450.45
2019-06-08T00:10:40.698Z,97459.07
2019-06-08T00:13:08.481Z,97465.36
2019-06-08T00:15:36.216Z,97460.86
2019-06-08T00:18:04.053Z,97456.71
2019-06-08T00:20:31.709Z,97466.44
2019-06-08T00:22:59.321Z,97465.72
2019-06-08T00:25:26.911Z,97467.94
2019-06-08T00:27:54.447Z,97465.88
2019-06-08T00:30:22.098Z,97471.20
2019-06-08T00:32:49.608Z,97474.23
2019-06-08T00:35:18.565Z,97469.76
2019-06-08T00:37:46.223Z,97475.86
2019-06-08T00:40:14.908Z,97475.23
2019-06-08T00:42:42.459Z,97473.72
2019-06-08T00:45:10.041Z,97477.98
2019-06-08T00:47:47.641Z,97466.62
2019-06-08T00:50:08.072Z,97467.95
2019-06-08T00:52:35.782Z,97471.36
2019-06-08T00:55:03.424Z,97467.47
2019-06-08T00:57:31.036Z,97467.40
2019-06-08T00:59:58.610Z,97463.52
2019-06-08T01:02:26.785Z,97465.27
2019-06-08T01:04:54.489Z,97459.44
2019-06-08T01:07:22.142Z,97457.62
2019-06-08T01:09:49.764Z,97454.02
2019-06-08T01:12:18.617Z,97455.04
2019-06-08T01:14:46.585Z,97451.28
2019-06-08T01:17:14.190Z,97448.89
2019-06-08T01:19:41.785Z,97447.94
2019-06-08T01:22:09.391Z,97450.53
2019-06-08T01:24:36.970Z,97452.23
2019-06-08T01:27:04.776Z,97450.41
2019-06-08T01:29:32.300Z,97455.67
2019-06-08T01:31:59.901Z,97456.16
2019-06-08T01:34:28.918Z,97457.27
2019-06-08T01:36:56.634Z,97458.72
2019-06-08T01:39:25.168Z,97462.25
2019-06-08T01:41:52.983Z,97458.88
2019-06-08T01:44:21.518Z,97455.73
2019-06-08T01:46:49.140Z,97456.98
2019-06-08T01:49:16.662Z,97458.08
2019-06-08T01:51:44.280Z,97466.58
2019-06-08T01:54:11.795Z,97461.88
2019-06-08T01:56:39.424Z,97456.05
2019-06-08T01:59:06.969Z,97435.73
2019-06-08T02:01:34.733Z,97465.16
2019-06-08T02:04:03.651Z,97470.14
2019-06-08T02:06:32.347Z,97474.75
2019-06-08T02:09:00.065Z,97470.30
2019-06-08T02:11:28.818Z,97470.42
2019-06-08T02:13:56.659Z,97468.02
2019-06-08T02:16:25.621Z,97475.80
2019-06-08T02:18:53.412Z,97473.24
2019-06-08T02:21:21.047Z,97478.46
2019-06-08T02:23:48.646Z,97484.44
2019-06-08T02:26:16.193Z,97483.25
2019-06-08T02:28:43.742Z,97482.77
2019-06-08T02:31:11.441Z,97485.70
2019-06-08T02:33:40.488Z,97475.87
2019-06-08T02:36:08.224Z,97479.02
2019-06-08T02:38:36.199Z,97475.53
2019-06-08T02:41:03.788Z,97477.72
2019-06-08T02:43:33.370Z,97477.13
2019-06-08T02:46:01.218Z,97480.89
2019-06-08T02:48:29.497Z,97486.98
2019-06-08T02:50:57.692Z,97489.27
2019-06-08T02:53:26.253Z,97494.76
2019-06-08T02:55:54.017Z,97504.22
2019-06-08T02:58:22.131Z,97502.52
2019-06-08T03:00:50.583Z,97504.72
2019-06-08T03:03:18.254Z,97515.75
2019-06-08T03:05:48.379Z,97528.25
2019-06-08T03:08:16.079Z,97531.62
2019-06-08T03:10:43.653Z,97533.70
2019-06-08T03:13:11.470Z,97535.40
2019-06-08T03:15:40.910Z,97540.72
2019-06-08T03:18:08.683Z,97546.31
2019-06-08T03:20:37.877Z,97547.52
2019-06-08T03:23:05.605Z,97544.11
2019-06-08T03:25:42.018Z,97546.52
2019-06-08T03:28:02.789Z,97557.20
2019-06-08T03:30:34.199Z,97562.53
2019-06-08T03:33:00.905Z,97566.30
2019-06-08T03:35:28.484Z,97573.06
2019-06-08T03:37:56.039Z,97569.91
2019-06-08T03:40:23.654Z,97567.59
2019-06-08T03:42:53.312Z,97576.20
2019-06-08T03:45:21.710Z,97581.30
2019-06-08T03:47:49.312Z,97574.59
2019-06-08T03:50:17.253Z,97580.81
2019-06-08T03:52:46.299Z,97591.01
2019-06-08T03:55:14.190Z,97589.77
2019-06-08T03:57:42.146Z,97598.27
2019-06-08T04:00:13.370Z,97596.30
2019-06-08T04:02:39.951Z,97600.89
2019-06-08T04:05:09.135Z,97606.83
2019-06-08T04:07:37.604Z,97605.06
2019-06-08T04:10:05.642Z,97607.25
2019-06-08T04:12:33.445Z,97613.38
2019-06-08T04:15:01.096Z,97613.84
2019-06-08T04:17:28.766Z,97614.09
2019-06-08T04:20:10.243Z,97614.77
2019-06-08T04:22:25.970Z,97620.84
2019-06-08T04:24:53.523Z,97626.88
2019-06-08T04:27:21.128Z,97634.65
2019-06-08T04:29:50.170Z,97636.67
2019-06-08T04:32:18.103Z,97639.31
2019-06-08T04:34:47.383Z,97646.20
2019-06-08T04:37:16.008Z,97647.89
2019-06-08T04:39:44.506Z,97652.58
2019-06-08T04:42:12.213Z,97663.30
2019-06-08T04:44:40.490Z,97668.30
2019-06-08T04:47:09.210Z,97672.00
2019-06-08T04:49:38.393Z,97668.57
2019-06-08T04:52:06.166Z,97674.45
2019-06-08T04:54:33.750Z,97663.13
2019-06-08T04:57:01.473Z,97673.70
2019-06-08T04:59:29.060Z,97676.13
2019-06-08T05:01:56.643Z,97674.85
2019-06-08T05:04:24.419Z,97673.35
2019-06-08T05:06:51.988Z,97676.84
2019-06-08T05:09:19.686Z,97676.39
2019-06-08T05:11:47.554Z,97691.34
2019-06-08T05:14:15.338Z,97691.92
2019-06-08T05:16:43.221Z,97701.53
2019-06-08T05:19:10.967Z,97714.66
2019-06-08T05:21:39.489Z,97707.23
2019-06-08T05:24:07.245Z,97719.88
2019-06-08T05:26:34.864Z,97722.85
2019-06-08T05:29:02.464Z,97722.03
2019-06-08T05:31:30.067Z,97721.47
2019-06-08T05:33:57.693Z,97723.48
2019-06-08T05:36:25.278Z,97725.18
2019-06-08T05:38:52.967Z,97726.41
2019-06-08T05:41:23.963Z,97733.91
2019-06-08T05:43:50.490Z,97740.09
2019-06-08T05:46:18.277Z,97733.62
2019-06-08T05:48:46.298Z,97742.46
2019-06-08T05:51:14.246Z,97749.97
2019-06-08T05:53:43.817Z,97750.36
2019-06-08T05:56:11.658Z,97757.38
2019-06-08T05:58:39.893Z,97756.91
2019-06-08T06:01:07.843Z,97761.02
2019-06-08T06:03:36.913Z,97760.05
2019-06-08T06:06:04.744Z,97761.59
2019-06-08T06:08:32.744Z,97770.94
2019-06-08T06:11:01.022Z,97766.59
2019-06-08T06:13:29.252Z,97773.52
2019-06-08T06:15:57.283Z,97774.02
2019-06-08T06:18:25.378Z,97774.02
2019-06-08T06:21:09.511Z,97789.75
2019-06-08T06:23:23.480Z,97783.67
2019-06-08T06:25:51.875Z,97786.56
2019-06-08T06:28:19.869Z,97791.27
2019-06-08T06:30:48.473Z,97795.50
2019-06-08T06:33:17.565Z,97792.63
2019-06-08T06:35:45.812Z,97797.67
2019-06-08T06:38:13.800Z,97795.26
2019-06-08T06:40:41.969Z,97802.00
2019-06-08T06:43:11.017Z,97803.98
2019-06-08T06:45:39.107Z,97805.81
2019-06-08T06:48:07.321Z,97803.88
2019-06-08T06:50:35.501Z,97807.53
2019-06-08T06:53:03.894Z,97815.45
2019-06-08T06:55:32.129Z,97811.47
2019-06-08T06:58:00.045Z,97801.95
2019-06-08T07:00:31.534Z,97824.52
2019-06-08T07:03:00.058Z,97822.25
2019-06-08T07:05:28.309Z,97823.73
2019-06-08T07:07:56.450Z,97823.16
2019-06-08T07:10:24.459Z,97820.20
2019-06-08T07:12:52.839Z,97823.09
2019-06-08T07:15:26.652Z,97828.65
2019-06-08T07:17:55.055Z,97826.64
2019-06-08T07:20:24.114Z,97832.30
2019-06-08T07:22:52.270Z,97830.88
2019-06-08T07:25:21.396Z,97832.92
2019-06-08T07:27:50.514Z,97830.97
2019-06-08T07:30:18.636Z,97841.86
2019-06-08T07:32:48.008Z,97834.35
2019-06-08T07:35:18.095Z,97843.37
2019-06-08T07:37:48.439Z,97838.92
2019-06-08T07:40:17.382Z,97841.02
2019-06-08T07:42:45.472Z,97843.36
2019-06-08T07:45:13.796Z,97833.00
2019-06-08T07:47:41.748Z,97842.27
2019-06-08T07:50:10.007Z,97833.31
2019-06-08T07:52:38.181Z,97827.72
2019-06-08T07:55:06.352Z,97833.84
2019-06-08T07:57:34.445Z,97835.34
2019-06-08T08:00:09.158Z,97835.36
2019-06-08T08:02:32.091Z,97833.78
2019-06-08T08:05:00.155Z,97828.84
2019-06-08T08:07:28.142Z,97839.94
2019-06-08T08:09:56.966Z,97841.09
2019-06-08T08:12:25.092Z,97840.95
2019-06-08T08:14:53.335Z,97841.33
2019-06-08T08:17:21.236Z,97844.92
2019-06-08T08:19:49.141Z,97853.13
2019-06-08T08:22:23.136Z,97848.75
2019-06-08T08:24:50.391Z,97850.45
2019-06-08T08:27:17.940Z,97854.80
2019-06-08T08:29:47.588Z,97859.73
2019-06-08T08:32:18.609Z,97855.89
2019-06-08T08:34:47.664Z,97857.12
2019-06-08T08:37:17.600Z,97846.84
2019-06-08T08:39:47.311Z,97869.86
2019-06-08T08:42:15.180Z,97860.94
2019-06-08T08:44:43.149Z,97865.15
2019-06-08T08:47:11.243Z,97864.73
2019-06-08T08:49:39.284Z,97868.81
2019-06-08T08:52:08.787Z,97869.94
2019-06-08T08:54:37.727Z,97874.58
2019-06-08T08:57:08.375Z,97881.41
2019-06-08T08:59:38.236Z,97881.47
2019-06-08T09:02:08.381Z,97885.00
2019-06-08T09:04:38.024Z,97879.14
2019-06-08T09:07:10.280Z,97883.78
2019-06-08T09:09:38.718Z,97893.52
2019-06-08T09:12:08.355Z,97890.54
2019-06-08T09:14:38.718Z,97888.52
2019-06-08T09:17:08.606Z,97882.33
2019-06-08T09:19:38.237Z,97888.06
2019-06-08T09:22:08.336Z,97883.02
2019-06-08T09:24:38.787Z,97886.27
2019-06-08T09:27:08.071Z,97884.22
2019-06-08T09:29:38.588Z,97881.36
2019-06-08T09:32:07.991Z,97878.59
2019-06-08T09:34:38.370Z,97881.42
2019-06-08T09:37:07.853Z,97884.67
2019-06-08T09:39:36.345Z,97879.47
2019-06-08T09:42:05.440Z,97879.88
2019-06-08T09:44:33.526Z,97890.33
2019-06-08T09:47:07.838Z,97887.80
2019-06-08T09:49:31.707Z,97885.67
2019-06-08T09:52:01.927Z,97887.97
2019-06-08T09:54:29.673Z,97883.53
2019-06-08T09:57:00.942Z,97890.29
2019-06-08T09:59:28.545Z,97902.28
2019-06-08T10:02:00.977Z,97884.77
2019-06-08T10:04:29.139Z,97896.44
2019-06-08T10:07:00.224Z,97894.20
2019-06-08T10:09:28.421Z,97888.86
2019-06-08T10:11:59.093Z,97892.48
2019-06-08T10:14:28.229Z,97893.75
2019-06-08T10:16:59.140Z,97890.31
2019-06-08T10:19:26.278Z,97883.75
2019-06-08T10:21:54.836Z,97884.42
2019-06-08T10:24:22.857Z,97899.38
2019-06-08T10:26:50.841Z,97902.59
2019-06-08T10:29:18.802Z,97906.59
2019-06-08T10:31:48.339Z,97904.09
2019-06-08T10:34:17.185Z,97918.47
2019-06-08T10:36:44.821Z,97921.00
2019-06-08T10:39:12.648Z,97929.95
2019-06-08T10:41:40.825Z,97917.56
2019-06-08T10:44:13.841Z,97930.03
2019-06-08T10:46:40.606Z,97932.89
2019-06-08T10:49:13.608Z,97932.78
2019-06-08T10:51:40.750Z,97931.41
2019-06-08T10:54:09.474Z,97917.52
2019-06-08T10:56:38.588Z,97931.01
2019-06-08T10:59:09.976Z,97943.61
2019-06-08T11:01:38.595Z,97941.58
2019-06-08T11:04:07.118Z,97936.23
2019-06-08T11:06:39.906Z,97938.84
2019-06-08T11:09:11.961Z,97935.28
2019-06-08T11:11:38.141Z,97943.27
2019-06-08T11:14:10.706Z,97945.03
2019-06-08T11:16:38.524Z,97947.06
2019-06-08T11:19:11.441Z,97947.70
2019-06-08T11:21:38.574Z,97944.42
2019-06-08T11:24:19.549Z,97936.41
2019-06-08T11:26:40.028Z,97942.57
2019-06-08T11:29:09.596Z,97940.36
2019-06-08T11:31:39.049Z,97933.30
2019-06-08T11:34:08.439Z,97940.17
2019-06-08T11:36:39.077Z,97941.37
2019-06-08T11:39:09.118Z,97940.86
2019-06-08T11:41:36.745Z,97947.11
2019-06-08T11:44:05.495Z,97943.81
2019-06-08T11:46:34.634Z,97954.85
2019-06-08T11:49:05.056Z,97960.59
2019-06-08T11:51:32.680Z,97964.05
2019-06-08T11:54:01.130Z,97958.08
2019-06-08T11:56:31.021Z,97967.38
2019-06-08T11:59:00.995Z,97959.36
2019-06-08T12:01:30.049Z,97961.85
2019-06-08T12:03:58.080Z,97958.30
2019-06-08T12:06:26.144Z,97962.55
2019-06-08T12:08:53.937Z,97967.99
2019-06-08T12:11:23.205Z,97961.58
2019-06-08T12:13:51.278Z,97963.78
2019-06-08T12:16:22.173Z,97950.58
2019-06-08T12:18:49.478Z,97951.46
2019-06-08T12:21:18.588Z,97934.30
2019-06-08T12:23:46.658Z,97965.27
2019-06-08T12:26:14.852Z,97955.68
2019-06-08T12:28:43.032Z,97955.30
2019-06-08T12:31:15.664Z,97961.56
2019-06-08T12:33:41.874Z,97962.09
2019-06-08T12:36:13.658Z,97955.45
2019-06-08T12:38:39.712Z,97959.84
2019-06-08T12:41:09.588Z,97962.31
2019-06-08T12:43:38.562Z,97960.20
2019-06-08T12:46:10.618Z,97973.34
2019-06-08T12:48:38.484Z,97966.92
2019-06-08T12:51:09.923Z,97973.94
2019-06-08T12:53:38.160Z,97971.86
2019-06-08T12:56:09.071Z,97967.83
2019-06-08T12:58:38.687Z,97975.77
2019-06-08T13:01:08.221Z,97973.67
2019-06-08T13:03:37.760Z,97982.28
2019-06-08T13:06:07.898Z,97976.08
2019-06-08T13:08:35.595Z,97978.34
2019-06-08T13:11:03.177Z,97978.38
2019-06-08T13:13:30.792Z,97989.04
2019-06-08T13:15:58.783Z,97994.91
2019-06-08T13:18:26.851Z,97991.16
2019-06-08T13:20:54.849Z,97991.28
2019-06-08T13:23:23.001Z,97991.16
2019-06-08T13:25:51.024Z,97995.39
2019-06-08T13:28:24.706Z,97980.02
2019-06-08T13:30:49.089Z,97980.25
2019-06-08T13:33:18.183Z,97983.16
2019-06-08T13:35:48.010Z,97973.30
2019-06-08T13:38:19.645Z,97973.81
2019-06-08T13:40:48.443Z,97955.73
2019-06-08T13:43:19.799Z,97981.28
2019-06-08T13:45:48.567Z,97975.69
2019-06-08T13:48:18.995Z,97979.77
2019-06-08T13:50:49.926Z,97976.66
2019-06-08T13:53:20.692Z,97979.11
2019-06-08T13:55:53.309Z,97984.20
2019-06-08T13:58:19.316Z,97979.64
2019-06-08T14:00:47.782Z,97993.42
2019-06-08T14:03:18.199Z,97995.24
2019-06-08T14:05:47.811Z,98000.65
2019-06-08T14:08:17.186Z,97995.78
2019-06-08T14:10:45.560Z,98008.37
2019-06-08T14:13:14.982Z,98011.67
2019-06-08T14:15:43.126Z,98012.36
2019-06-08T14:18:10.963Z,98013.95
2019-06-08T14:20:38.990Z,98016.75
2019-06-08T14:23:09.225Z,98018.70
2019-06-08T14:25:49.789Z,98012.59
2019-06-08T14:28:06.724Z,98031.72
2019-06-08T14:30:37.647Z,98031.66
2019-06-08T14:33:08.012Z,98036.47
2019-06-08T14:35:35.341Z,98044.33
2019-06-08T14:38:03.332Z,98036.98
2019-06-08T14:40:33.082Z,98041.00
2019-06-08T14:43:01.488Z,98042.39
2019-06-08T14:45:31.059Z,98048.28
2019-06-08T14:47:59.344Z,98050.19
2019-06-08T14:50:30.730Z,98054.88
2019-06-08T14:52:58.836Z,98053.22
2019-06-08T14:55:33.244Z,98057.70
2019-06-08T14:57:57.986Z,98052.78
2019-06-08T15:00:27.523Z,98056.05
2019-06-08T15:02:55.691Z,98061.76
2019-06-08T15:05:23.510Z,98067.97
2019-06-08T15:07:51.497Z,98063.91
2019-06-08T15:10:21.467Z,98061.59
2019-06-08T15:12:48.960Z,98056.69
2019-06-08T15:15:18.458Z,98060.52
2019-06-08T15:17:47.720Z,98060.64
2019-06-08T15:20:17.675Z,98061.52
2019-06-08T15:22:45.614Z,98060.44
2019-06-08T15:25:13.235Z,98067.64
2019-06-08T15:27:40.857Z,98067.99
2019-06-08T15:30:10.092Z,98070.10
2019-06-08T15:32:38.656Z,98069.45
2019-06-08T15:35:08.141Z,98068.58
2019-06-08T15:37:38.016Z,98073.64
2019-06-08T15:40:07.647Z,98072.41
2019-06-08T15:42:35.857Z,98078.90
2019-06-08T15:45:04.864Z,98076.84
2019-06-08T15:47:32.611Z,98083.56
2019-06-08T15:50:00.917Z,98086.23
2019-06-08T15:52:30.876Z,98090.83
2019-06-08T15:55:01.386Z,98085.20
2019-06-08T15:57:31.100Z,98083.57
2019-06-08T15:59:58.674Z,98098.66
2019-06-08T16:02:27.325Z,98085.00
2019-06-08T16:04:55.601Z,98092.06
2019-06-08T16:07:29.408Z,98084.03
2019-06-08T16:09:53.416Z,98086.71
2019-06-08T16:12:21.421Z,98075.38
2019-06-08T16:14:49.285Z,98091.39
2019-06-08T16:17:17.325Z,98092.62
2019-06-08T16:19:45.218Z,98104.41
2019-06-08T16:22:13.041Z,98107.50
2019-06-08T16:24:41.153Z,98106.71
2019-06-08T16:27:09.023Z,98113.55
2019-06-08T16:29:36.786Z,98121.85
2019-06-08T16:32:04.741Z,98126.97
2019-06-08T16:34:33.611Z,98131.73
2019-06-08T16:37:02.884Z,98133.26
2019-06-08T16:39:30.944Z,98140.41
2019-06-08T16:41:58.821Z,98141.55
2019-06-08T16:44:28.023Z,98144.62
2019-06-08T16:46:55.853Z,98142.73
2019-06-08T16:49:23.943Z,98145.45
2019-06-08T16:51:51.832Z,98156.48
2019-06-08T16:54:20.904Z,98162.92
2019-06-08T16:56:48.776Z,98153.41
2019-06-08T16:59:19.576Z,98156.81
2019-06-08T17:01:47.772Z,98165.28
2019-06-08T17:04:15.618Z,98159.19
2019-06-08T17:06:43.520Z,98162.58
2019-06-08T17:09:11.397Z,98152.41
2019-06-08T17:11:39.442Z,98171.87
2019-06-08T17:14:08.257Z,98158.16
2019-06-08T17:16:36.414Z,98173.21
2019-06-08T17:19:04.567Z,98165.92
2019-06-08T17:21:32.305Z,98166.56
2019-06-08T17:23:59.853Z,98171.98
2019-06-08T17:26:27.892Z,98166.88
2019-06-08T17:28:55.951Z,98167.52
2019-06-08T17:31:23.883Z,98173.76
2019-06-08T17:33:51.897Z,98163.78
2019-06-08T17:36:19.812Z,98168.50
2019-06-08T17:38:47.848Z,98166.80
2019-06-08T17:41:15.938Z,98168.12
2019-06-08T17:43:44.098Z,98167.44
2019-06-08T17:46:12.047Z,98162.36
2019-06-08T17:48:40.706Z,98170.80
2019-06-08T17:51:08.965Z,98176.20
2019-06-08T17:53:37.066Z,98171.45
2019-06-08T17:56:04.838Z,98179.22
2019-06-08T17:58:33.072Z,98182.59
2019-06-08T18:01:00.852Z,98184.94
2019-06-08T18:03:29.047Z,98187.26
2019-06-08T18:05:57.989Z,98189.66
2019-06-08T18:08:28.171Z,98196.02
2019-06-08T18:10:57.608Z,98178.00
2019-06-08T18:13:27.259Z,98196.33
2019-06-08T18:15:57.464Z,98200.99
2019-06-08T18:18:25.097Z,98202.04
2019-06-08T18:20:52.956Z,98209.45
2019-06-08T18:23:21.009Z,98206.83
2019-06-08T18:25:49.059Z,98207.98
2019-06-08T18:28:17.953Z,98205.27
2019-06-08T18:30:49.011Z,98210.97
2019-06-08T18:33:17.924Z,98213.97
2019-06-08T18:35:46.896Z,98207.15
2019-06-08T18:38:14.688Z,98211.91
2019-06-08T18:40:43.446Z,98222.06
2019-06-08T18:43:11.249Z,98226.13
2019-06-08T18:45:41.211Z,98232.53
2019-06-08T18:48:08.332Z,98229.60
2019-06-08T18:50:38.060Z,98233.31
2019-06-08T18:53:07.104Z,98228.38
2019-06-08T18:55:36.256Z,98237.59
2019-06-08T18:58:16.343Z,98249.69
2019-06-08T19:00:40.008Z,98249.11
2019-06-08T19:03:07.165Z,98247.41
2019-06-08T19:05:38.452Z,98247.41
2019-06-08T19:08:07.009Z,98254.66
2019-06-08T19:10:37.887Z,98263.39
2019-06-08T19:13:05.878Z,98261.56
2019-06-08T19:15:38.787Z,98270.27
2019-06-08T19:18:05.331Z,98269.17
2019-06-08T19:20:35.054Z,98282.27
2019-06-08T19:23:03.346Z,98286.28
2019-06-08T19:25:31.293Z,98297.73
2019-06-08T19:27:59.375Z,98297.73
2019-06-08T19:30:28.194Z,98298.88
2019-06-08T19:32:58.003Z,98302.44
2019-06-08T19:35:27.395Z,98298.84
2019-06-08T19:37:58.143Z,98306.19
2019-06-08T19:40:27.156Z,98287.38
2019-06-08T19:42:58.015Z,98319.80
2019-06-08T19:45:27.547Z,98317.83
2019-06-08T19:47:57.578Z,98320.27
2019-06-08T19:50:24.916Z,98327.45
2019-06-08T19:52:53.537Z,98332.22
2019-06-08T19:55:21.947Z,98333.80
2019-06-08T19:57:51.786Z,98331.95
2019-06-08T20:00:19.510Z,98330.93
2019-06-08T20:02:51.915Z,98332.77
2019-06-08T20:05:17.523Z,98339.85
2019-06-08T20:07:45.106Z,98338.58
2019-06-08T20:10:12.699Z,98328.36
2019-06-08T20:12:41.214Z,98329.23
2019-06-08T20:15:09.589Z,98305.23
2019-06-08T20:17:37.371Z,98330.32
2019-06-08T20:20:07.739Z,98330.16
2019-06-08T20:22:37.310Z,98342.56
2019-06-08T20:25:10.190Z,98338.92
2019-06-08T20:27:37.241Z,98341.31
2019-06-08T20:30:09.624Z,98345.17
2019-06-08T20:32:35.640Z,98347.73
2019-06-08T20:35:05.066Z,98345.64
2019-06-08T20:37:33.330Z,98353.53
2019-06-08T20:40:10.197Z,98355.36
2019-06-08T20:42:31.249Z,98354.61
2019-06-08T20:44:59.268Z,98356.73
2019-06-08T20:47:27.694Z,98362.85
2019-06-08T20:49:58.107Z,98345.47
2019-06-08T20:52:28.016Z,98356.83
2019-06-08T20:54:55.493Z,98357.13
2019-06-08T20:57:23.380Z,98361.06
2019-06-08T20:59:53.437Z,98360.86
2019-06-08T21:02:21.297Z,98344.95
2019-06-08T21:04:52.799Z,98363.36
2019-06-08T21:07:19.172Z,98359.36
2019-06-08T21:09:50.738Z,98366.31
2019-06-08T21:12:17.766Z,98363.91
2019-06-08T21:14:49.310Z,98361.73
2019-06-08T21:17:17.904Z,98377.83
2019-06-08T21:19:46.723Z,98374.44
2019-06-08T21:22:14.707Z,98370.88
2019-06-08T21:24:42.711Z,98384.44
2019-06-08T21:27:10.542Z,98383.48
2019-06-08T21:29:47.457Z,98390.18
2019-06-08T21:32:09.711Z,98389.83
2019-06-08T21:34:38.100Z,98388.77
2019-06-08T21:37:06.127Z,98390.23
2019-06-08T21:39:36.670Z,98398.14
2019-06-08T21:42:04.099Z,98399.72
2019-06-08T21:44:32.077Z,98407.77
2019-06-08T21:47:01.582Z,98407.77
2019-06-08T21:49:29.942Z,98403.13
2019-06-08T21:52:00.823Z,98404.95
2019-06-08T21:54:27.673Z,98407.52
2019-06-08T21:56:58.868Z,98410.31
2019-06-08T21:59:25.511Z,98418.95
2019-06-08T22:01:54.724Z,98416.13
2019-06-08T22:04:23.090Z,98416.94
2019-06-08T22:06:51.910Z,98417.79
2019-06-08T22:09:19.972Z,98422.78
2019-06-08T22:11:47.810Z,98432.86
2019-06-08T22:14:15.880Z,98429.91
2019-06-08T22:16:43.962Z,98430.64
2019-06-08T22:19:11.725Z,98426.13
2019-06-08T22:21:39.467Z,98431.71
2019-06-08T22:24:07.901Z,98426.09
2019-06-08T22:26:35.933Z,98426.45
2019-06-08T22:29:03.798Z,98425.58
2019-06-08T22:31:32.080Z,98420.44
2019-06-08T22:34:02.060Z,98427.97
2019-06-08T22:36:29.793Z,98427.72
2019-06-08T22:38:59.308Z,98432.83
2019-06-08T22:41:28.060Z,98438.29
2019-06-08T22:43:59.036Z,98429.41
2019-06-08T22:46:25.338Z,98441.08
2019-06-08T22:48:53.568Z,98435.94
2019-06-08T22:51:22.393Z,98435.56
2019-06-08T22:53:50.194Z,98436.31
2019-06-08T22:56:18.453Z,98432.17
2019-06-08T22:58:48.015Z,98440.20
2019-06-08T23:01:18.197Z,98422.27
2019-06-08T23:03:47.584Z,98436.66
2019-06-08T23:06:17.715Z,98434.09
2019-06-08T23:08:47.880Z,98434.73
2019-06-08T23:11:17.834Z,98441.54
2019-06-08T23:13:47.194Z,98442.04
2019-06-08T23:16:15.003Z,98439.47
2019-06-08T23:18:42.876Z,98444.26
2019-06-08T23:21:10.927Z,98446.94
2019-06-08T23:23:38.789Z,98440.62
2019-06-08T23:26:10.177Z,98438.90
2019-06-08T23:28:37.770Z,98440.72
2019-06-08T23:31:19.425Z,98445.48
2019-06-08T23:33:38.534Z,98445.97
2019-06-08T23:36:39.465Z,98445.59
2019-06-08T23:38:37.276Z,98451.58
2019-06-08T23:41:05.616Z,98450.83
2019-06-08T23:43:33.627Z,98446.81
2019-06-08T23:46:02.366Z,98450.45
2019-06-08T23:48:30.541Z,98452.75
2019-06-08T23:50:59.082Z,98450.34
2019-06-08T23:53:27.617Z,98452.45
2019-06-08T23:55:55.274Z,98457.72
2019-06-08T23:58:22.870Z,98450.41
